createdAt,value
2018-05-08T00:00:59.121Z,216
2018-05-08T00:02:06.362Z,216
2018-05-08T00:03:13.572Z,215
2018-05-08T00:04:20.781Z,215
2018-05-08T00:05:27.988Z,215
2018-05-08T00:06:35.198Z,215
2018-05-08T00:07:42.406Z,216
2018-05-08T00:08:49.719Z,215
2018-05-08T00:09:56.916Z,215
2018-05-08T00:11:04.118Z,215
2018-05-08T00:12:11.325Z,214
2018-05-08T00:13:18.534Z,215
2018-05-08T00:14:25.449Z,215
2018-05-08T00:15:32.658Z,215
2018-05-08T00:16:39.867Z,215
2018-05-08T00:17:47.070Z,215
2018-05-08T00:18:54.001Z,215
2018-05-08T00:20:01.214Z,215
2018-05-08T00:21:08.149Z,215
2018-05-08T00:22:15.082Z,215
2018-05-08T00:23:22.290Z,215
2018-05-08T00:24:29.498Z,215
2018-05-08T00:25:36.429Z,214
2018-05-08T00:26:43.365Z,214
2018-05-08T00:27:50.571Z,214
2018-05-08T00:28:57.781Z,214
2018-05-08T00:30:05.052Z,215
2018-05-08T00:31:12.255Z,215
2018-05-08T00:32:19.190Z,215
2018-05-08T00:33:26.403Z,214
2018-05-08T00:34:33.611Z,214
2018-05-08T00:35:40.820Z,214
2018-05-08T00:36:47.755Z,214
2018-05-08T00:37:54.965Z,214
2018-05-08T00:39:02.169Z,214
2018-05-08T00:40:09.377Z,214
2018-05-08T00:41:16.588Z,214
2018-05-08T00:42:23.790Z,214
2018-05-08T00:43:30.999Z,214
2018-05-08T00:44:38.206Z,214
2018-05-08T00:45:45.412Z,213
2018-05-08T00:46:52.624Z,214
2018-05-08T00:47:59.825Z,213
2018-05-08T00:49:07.031Z,214
2018-05-08T00:50:14.256Z,213
2018-05-08T00:51:21.185Z,213
2018-05-08T00:52:28.388Z,213
2018-05-08T00:53:35.594Z,214
2018-05-08T00:54:42.817Z,214
2018-05-08T00:55:50.026Z,214
2018-05-08T00:56:57.236Z,213
2018-05-08T00:58:04.437Z,214
2018-05-08T00:59:11.644Z,214
2018-05-08T01:00:18.574Z,213
2018-05-08T01:01:25.780Z,214
2018-05-08T01:02:32.982Z,213
2018-05-08T01:03:40.189Z,213
2018-05-08T01:04:47.395Z,213
2018-05-08T01:05:54.601Z,214
2018-05-08T01:07:01.805Z,213
2018-05-08T01:08:09.013Z,213
2018-05-08T01:09:16.216Z,213
2018-05-08T01:10:23.434Z,214
2018-05-08T01:11:30.672Z,214
2018-05-08T01:12:37.865Z,213
2018-05-08T01:13:45.076Z,214
2018-05-08T01:14:52.284Z,213
2018-05-08T01:15:59.494Z,214
2018-05-08T01:17:06.895Z,213
2018-05-08T01:18:14.221Z,214
2018-05-08T01:19:21.150Z,213
2018-05-08T01:20:28.364Z,213
2018-05-08T01:21:35.567Z,213
2018-05-08T01:22:42.773Z,213
2018-05-08T01:23:49.711Z,213
2018-05-08T01:24:56.644Z,214
2018-05-08T01:26:03.586Z,214
2018-05-08T01:27:10.525Z,214
2018-05-08T01:28:17.722Z,213
2018-05-08T01:29:24.652Z,214
2018-05-08T01:30:31.867Z,214
2018-05-08T01:31:39.245Z,214
2018-05-08T01:32:46.518Z,214
2018-05-08T01:33:53.725Z,214
2018-05-08T01:35:01.128Z,214
2018-05-08T01:36:08.066Z,213
2018-05-08T01:37:15.272Z,214
2018-05-08T01:38:22.478Z,213
2018-05-08T01:39:29.681Z,213
2018-05-08T01:40:36.887Z,213
2018-05-08T01:41:44.091Z,213
2018-05-08T01:42:51.019Z,213
2018-05-08T01:43:58.229Z,213
2018-05-08T01:45:05.163Z,213
2018-05-08T01:46:12.099Z,213
2018-05-08T01:47:19.310Z,213
2018-05-08T01:48:26.523Z,214
2018-05-08T01:49:33.733Z,214
2018-05-08T01:50:40.940Z,214
2018-05-08T01:51:48.148Z,214
2018-05-08T01:52:55.352Z,214
2018-05-08T01:54:02.285Z,214
2018-05-08T01:55:09.494Z,214
2018-05-08T01:56:16.703Z,214
2018-05-08T01:57:23.909Z,214
2018-05-08T01:58:31.120Z,214
2018-05-08T01:59:38.324Z,215
2018-05-08T02:00:45.531Z,215
2018-05-08T02:01:52.736Z,214
2018-05-08T02:02:59.947Z,214
2018-05-08T02:04:07.154Z,214
2018-05-08T02:05:14.361Z,214
2018-05-08T02:06:21.566Z,214
2018-05-08T02:07:28.776Z,215
2018-05-08T02:08:35.985Z,215
2018-05-08T02:09:43.189Z,215
2018-05-08T02:10:50.396Z,215
2018-05-08T02:11:57.598Z,215
2018-05-08T02:13:04.800Z,215
2018-05-08T02:14:12.009Z,215
2018-05-08T02:15:19.269Z,215
2018-05-08T02:16:26.492Z,215
2018-05-08T02:17:33.697Z,216
2018-05-08T02:18:40.905Z,216
2018-05-08T02:19:48.112Z,216
2018-05-08T02:20:55.317Z,216
2018-05-08T02:22:02.519Z,216
2018-05-08T02:23:09.450Z,216
2018-05-08T02:24:16.675Z,216
2018-05-08T02:25:23.878Z,216
2018-05-08T02:26:30.814Z,217
2018-05-08T02:27:38.020Z,217
2018-05-08T02:28:45.227Z,217
2018-05-08T02:29:52.429Z,217
2018-05-08T02:30:59.391Z,217
2018-05-08T02:32:06.596Z,217
2018-05-08T02:33:13.799Z,217
2018-05-08T02:34:20.741Z,218
2018-05-08T02:35:27.937Z,218
2018-05-08T02:36:35.146Z,218
2018-05-08T02:37:42.352Z,218
2018-05-08T02:38:49.283Z,218
2018-05-08T02:39:56.481Z,218
2018-05-08T02:41:03.684Z,218
2018-05-08T02:42:10.893Z,219
2018-05-08T02:43:18.096Z,218
2018-05-08T02:44:25.298Z,218
2018-05-08T02:45:31.964Z,219
2018-05-08T02:46:39.175Z,220
2018-05-08T02:47:46.374Z,220
2018-05-08T02:48:53.580Z,219
2018-05-08T02:50:00.787Z,219
2018-05-08T02:51:07.996Z,220
2018-05-08T02:52:15.208Z,220
2018-05-08T02:53:22.341Z,220
2018-05-08T02:54:29.556Z,220
2018-05-08T02:55:36.761Z,220
2018-05-08T02:56:43.962Z,220
2018-05-08T02:57:51.166Z,220
2018-05-08T02:58:58.371Z,219
2018-05-08T03:00:05.590Z,220
2018-05-08T03:01:12.800Z,220
2018-05-08T03:02:20.001Z,220
2018-05-08T03:03:27.211Z,220
2018-05-08T03:04:34.411Z,220
2018-05-08T03:05:41.349Z,220
2018-05-08T03:06:48.599Z,220
2018-05-08T03:07:55.790Z,220
2018-05-08T03:09:02.994Z,220
2018-05-08T03:10:10.197Z,220
2018-05-08T03:11:17.403Z,220
2018-05-08T03:12:24.610Z,220
2018-05-08T03:13:31.820Z,220
2018-05-08T03:14:39.030Z,220
2018-05-08T03:15:46.223Z,219
2018-05-08T03:17:08.079Z,220
2018-05-08T03:18:15.275Z,220
2018-05-08T03:19:22.219Z,220
2018-05-08T03:20:29.421Z,220
2018-05-08T03:21:36.626Z,220
2018-05-08T03:22:43.826Z,221
2018-05-08T03:23:51.032Z,221
2018-05-08T03:24:58.237Z,221
2018-05-08T03:26:05.513Z,221
2018-05-08T03:27:12.717Z,221
2018-05-08T03:28:19.924Z,221
2018-05-08T03:29:27.140Z,221
2018-05-08T03:30:34.343Z,221
2018-05-08T03:31:41.547Z,221
2018-05-08T03:32:48.743Z,221
2018-05-08T03:33:55.947Z,220
2018-05-08T03:35:03.150Z,221
2018-05-08T03:36:10.352Z,221
2018-05-08T03:37:17.562Z,221
2018-05-08T03:38:24.493Z,221
2018-05-08T03:39:31.430Z,220
2018-05-08T03:40:38.631Z,221
2018-05-08T03:41:45.838Z,220
2018-05-08T03:42:53.044Z,220
2018-05-08T03:43:59.974Z,220
2018-05-08T03:45:07.180Z,220
2018-05-08T03:46:14.384Z,220
2018-05-08T03:47:21.324Z,220
2018-05-08T03:48:28.523Z,220
2018-05-08T03:49:35.473Z,220
2018-05-08T03:50:42.682Z,220
2018-05-08T03:51:49.887Z,221
2018-05-08T03:52:57.088Z,220
2018-05-08T03:54:04.297Z,220
2018-05-08T03:55:11.501Z,220
2018-05-08T03:56:18.704Z,220
2018-05-08T03:57:26.234Z,220
2018-05-08T03:58:33.515Z,221
2018-05-08T03:59:40.722Z,221
2018-05-08T04:00:47.945Z,221
2018-05-08T04:01:55.152Z,221
2018-05-08T04:03:02.358Z,221
2018-05-08T04:04:09.564Z,222
2018-05-08T04:05:16.780Z,221
2018-05-08T04:06:23.974Z,221
2018-05-08T04:07:31.181Z,221
2018-05-08T04:08:38.386Z,222
2018-05-08T04:09:45.595Z,222
2018-05-08T04:10:52.799Z,222
2018-05-08T04:12:00.009Z,222
2018-05-08T04:13:07.213Z,222
2018-05-08T04:14:14.416Z,223
2018-05-08T04:15:21.621Z,223
2018-05-08T04:16:28.826Z,223
2018-05-08T04:17:36.027Z,223
2018-05-08T04:18:43.238Z,223
2018-05-08T04:19:50.166Z,223
2018-05-08T04:20:57.415Z,224
2018-05-08T04:22:04.687Z,224
2018-05-08T04:23:11.895Z,224
2018-05-08T04:24:19.111Z,224
2018-05-08T04:25:26.312Z,223
2018-05-08T04:26:33.246Z,223
2018-05-08T04:27:40.446Z,223
2018-05-08T04:28:47.386Z,223
2018-05-08T04:29:54.590Z,224
2018-05-08T04:31:01.799Z,224
2018-05-08T04:32:09.010Z,224
2018-05-08T04:33:16.215Z,224
2018-05-08T04:34:23.137Z,224
2018-05-08T04:35:30.344Z,224
2018-05-08T04:36:37.715Z,224
2018-05-08T04:37:45.011Z,224
2018-05-08T04:38:52.210Z,224
2018-05-08T04:39:59.109Z,223
2018-05-08T04:41:06.315Z,223
2018-05-08T04:42:13.578Z,223
2018-05-08T04:43:20.785Z,222
2018-05-08T04:44:27.991Z,222
2018-05-08T04:45:35.191Z,222
2018-05-08T04:46:42.399Z,222
2018-05-08T04:47:49.613Z,222
2018-05-08T04:48:56.819Z,222
2018-05-08T04:50:04.024Z,222
2018-05-08T04:51:11.233Z,221
2018-05-08T04:52:18.158Z,221
2018-05-08T04:53:25.428Z,221
2018-05-08T04:54:32.634Z,222
2018-05-08T04:55:39.841Z,221
2018-05-08T04:56:47.042Z,221
2018-05-08T04:57:54.252Z,221
2018-05-08T04:59:01.456Z,221
2018-05-08T05:00:08.659Z,221
2018-05-08T05:01:15.873Z,221
2018-05-08T05:02:23.084Z,221
2018-05-08T05:03:30.284Z,221
2018-05-08T05:04:37.494Z,221
2018-05-08T05:05:44.702Z,220
2018-05-08T05:06:51.945Z,220
2018-05-08T05:07:59.233Z,220
2018-05-08T05:09:06.440Z,220
2018-05-08T05:10:13.643Z,220
2018-05-08T05:11:20.854Z,220
2018-05-08T05:12:27.780Z,220
2018-05-08T05:13:34.714Z,220
2018-05-08T05:14:41.920Z,220
2018-05-08T05:15:48.580Z,220
2018-05-08T05:16:55.787Z,219
2018-05-08T05:18:02.719Z,220
2018-05-08T05:19:09.925Z,220
2018-05-08T05:20:17.131Z,219
2018-05-08T05:21:24.336Z,220
2018-05-08T05:22:31.544Z,219
2018-05-08T05:23:38.746Z,219
2018-05-08T05:24:45.960Z,219
2018-05-08T05:25:53.171Z,219
2018-05-08T05:27:00.381Z,219
2018-05-08T05:28:07.586Z,219
2018-05-08T05:29:14.790Z,219
2018-05-08T22:00:07.215Z,226
2018-05-08T22:01:14.436Z,227
2018-05-08T22:02:21.649Z,228
2018-05-08T22:03:28.855Z,228
2018-05-08T22:04:36.065Z,228
2018-05-08T22:05:43.282Z,228
2018-05-08T22:06:50.215Z,228
2018-05-08T22:07:57.421Z,227
2018-05-08T22:09:04.631Z,228
2018-05-08T22:10:11.841Z,228
2018-05-08T22:11:19.047Z,227
2018-05-08T22:12:26.255Z,227
2018-05-08T22:13:33.465Z,227
2018-05-08T22:14:40.681Z,227
2018-05-08T22:15:47.892Z,227
2018-05-08T22:16:55.175Z,227
2018-05-08T22:18:02.392Z,227
2018-05-08T22:19:09.597Z,227
2018-05-08T22:20:17.014Z,227
2018-05-08T22:21:24.260Z,227
2018-05-08T22:22:31.196Z,227
2018-05-08T22:23:38.406Z,227
2018-05-08T22:24:45.613Z,227
2018-05-08T22:25:52.823Z,227
2018-05-08T22:27:00.033Z,227
2018-05-08T22:28:07.242Z,227
2018-05-08T22:29:14.449Z,227
2018-05-08T22:30:21.662Z,227
2018-05-08T22:31:28.869Z,227
2018-05-08T22:32:35.799Z,227
2018-05-08T22:33:42.733Z,227
2018-05-08T22:34:49.941Z,227
2018-05-08T22:35:57.148Z,227
2018-05-08T22:37:04.356Z,227
2018-05-08T22:38:11.562Z,227
2018-05-08T22:39:18.833Z,226
2018-05-08T22:40:26.040Z,226
2018-05-08T22:41:33.249Z,226
2018-05-08T22:42:40.611Z,226
2018-05-08T22:43:47.836Z,226
2018-05-08T22:44:55.041Z,225
2018-05-08T22:46:02.252Z,226
2018-05-08T22:47:09.454Z,225
2018-05-08T22:48:16.666Z,225
2018-05-08T22:49:23.873Z,225
2018-05-08T22:50:31.080Z,225
2018-05-08T22:51:38.287Z,226
2018-05-08T22:52:45.498Z,226
2018-05-08T22:53:52.704Z,226
2018-05-08T22:54:59.920Z,225
2018-05-08T22:56:07.121Z,225
2018-05-08T22:57:14.332Z,225
2018-05-08T22:58:21.539Z,225
2018-05-08T22:59:28.751Z,225
2018-05-08T23:00:35.686Z,225
2018-05-08T23:01:42.619Z,224
2018-05-08T23:02:49.830Z,224
2018-05-08T23:03:57.041Z,225
2018-05-08T23:05:04.248Z,224
2018-05-08T23:06:11.181Z,224
2018-05-08T23:07:18.393Z,224
2018-05-08T23:08:25.604Z,224
2018-05-08T23:09:32.814Z,224
2018-05-08T23:10:40.029Z,223
2018-05-08T23:11:47.239Z,223
2018-05-08T23:12:54.167Z,223
2018-05-08T23:14:01.444Z,223
2018-05-08T23:15:08.651Z,223
2018-05-08T23:16:15.863Z,223
2018-05-08T23:17:23.075Z,222
2018-05-08T23:18:30.287Z,223
2018-05-08T23:19:37.492Z,222
2018-05-08T23:20:44.704Z,222
2018-05-08T23:21:51.916Z,222
2018-05-08T23:22:59.124Z,222
2018-05-08T23:24:06.330Z,223
2018-05-08T23:25:12.989Z,223
2018-05-08T23:26:20.196Z,223
2018-05-08T23:27:27.400Z,223
2018-05-08T23:28:34.614Z,223
2018-05-08T23:29:41.819Z,223
2018-05-08T23:30:49.029Z,223
2018-05-08T23:31:56.239Z,223
2018-05-08T23:33:03.446Z,222
2018-05-08T23:34:10.653Z,223
2018-05-08T23:35:17.859Z,223
2018-05-08T23:36:24.793Z,222
2018-05-08T23:37:32.002Z,222
2018-05-08T23:38:39.205Z,222
2018-05-08T23:39:46.412Z,222
2018-05-08T23:40:53.623Z,222
2018-05-08T23:42:00.834Z,222
2018-05-08T23:43:08.046Z,222
2018-05-08T23:44:15.302Z,222
2018-05-08T23:45:22.514Z,222
2018-05-08T23:46:29.848Z,222
2018-05-08T23:47:37.064Z,221
2018-05-08T23:48:44.265Z,221
2018-05-08T23:49:51.477Z,221
2018-05-08T23:50:58.688Z,222
2018-05-08T23:52:05.903Z,222
2018-05-08T23:53:13.101Z,222
2018-05-08T23:54:20.312Z,222
2018-05-08T23:55:27.521Z,221
2018-05-08T23:56:34.726Z,222
2018-05-08T23:57:41.936Z,222
2018-05-08T23:58:49.150Z,222
2018-05-08T23:59:56.349Z,221
